This is the latest recevied weather packets stored in our database for station/object RU2DX-10. If no packets are shown the sender has not sent any weather packets the latest 1 day(s).
| Time | Temp. | Humidity | Pressure | Rain* | Wind** | Luminosity | Snow |
|---|---|---|---|---|---|---|---|
| 1778095310 | 18.89° C | 82% | 1008.5 hPa | - | - | - | - |
| 1778092608 | 20° C | 69% | 1008.1 hPa | - | - | - | - |
| 1778091708 | 20° C | 67% | 1008.1 hPa | - | - | - | - |
| 1778090807 | 20° C | 61% | 1008 hPa | - | - | - | - |
| 1778089006 | 20.56° C | 54% | 1007.9 hPa | - | - | - | - |
| 1778084502 | 25° C | 46% | 1007.3 hPa | - | - | - | - |
| 1778083601 | 25.56° C | 43% | 1007.3 hPa | - | - | - | - |
| 1778082700 | 24.44° C | 48% | 1007.3 hPa | - | - | - | - |
| 1778079998 | 23.33° C | 47% | 1007.1 hPa | - | - | - | - |
| 1778079097 | 24.44° C | 43% | 1007.1 hPa | - | - | - | - |
| 1778078196 | 25° C | 40% | 1007 hPa | - | - | - | - |
| 1778077295 | 25° C | 39% | 1006.9 hPa | - | - | - | - |
| 1778076394 | 25.56° C | 37% | 1006.7 hPa | - | - | - | - |
| 1778075493 | 25.56° C | 38% | 1006.8 hPa | - | - | - | - |
| 1778068288 | 26.67° C | 35% | 1006.9 hPa | - | - | - | - |
| 1778065586 | 26.67° C | 37% | 1007 hPa | - | - | - | - |
| 1778062884 | 27.22° C | 38% | 1007.1 hPa | - | - | - | - |
| 1778061984 | 26.11° C | 40% | 1007.1 hPa | - | - | - | - |
| 1778061083 | 26.11° C | 39% | 1007.1 hPa | - | - | - | - |
| 1778060182 | 26.11° C | 39% | 1007 hPa | - | - | - | - |
| 1778059281 | 26.67° C | 41% | 1007 hPa | - | - | - | - |
| 1778058380 | 25° C | 42% | 1007 hPa | - | - | - | - |
| 1778057479 | 25° C | 41% | 1007 hPa | - | - | - | - |
| 1778056578 | 24.44° C | 43% | 1006.9 hPa | - | - | - | - |
| 1778052976 | 23.33° C | 44% | 1006.8 hPa | - | - | - | - |
* Rain since midnight (hover to see other rain measurements)
** Current wind speed in m/s (hover to see current wind gust speed)